createdAt,value
2019-02-22T00:01:22.359Z,124069.44
2019-02-22T00:03:53.657Z,124013.63
2019-02-22T00:06:25.113Z,124164.08
2019-02-22T00:08:57.651Z,124198.13
2019-02-22T00:11:28.921Z,124063.45
2019-02-22T00:14:00.600Z,124012.12
2019-02-22T00:16:32.509Z,124796.23
2019-02-22T00:19:04.172Z,124641.05
2019-02-22T00:21:35.517Z,124410.76
2019-02-22T00:24:06.823Z,124436.40
2019-02-22T00:26:38.722Z,124227.82
2019-02-22T00:29:29.196Z,124083.15
2019-02-22T00:32:00.414Z,123996.87
2019-02-22T00:34:31.896Z,123845.08
2019-02-22T00:37:03.198Z,123850.11
2019-02-22T00:39:40.552Z,123773.95
2019-02-22T00:42:11.984Z,123508.23
2019-02-22T00:44:43.909Z,123371.83
2019-02-22T00:47:15.263Z,123101.72
2019-02-22T00:49:46.683Z,122763.73
2019-02-22T00:52:19.500Z,122436.56
2019-02-22T00:54:52.945Z,122130.70
2019-02-22T00:57:24.691Z,122005.02
2019-02-22T00:59:57.269Z,122336.50
2019-02-22T01:02:28.546Z,122043.89
2019-02-22T01:04:59.939Z,121805.56
2019-02-22T01:07:31.216Z,121625.81
2019-02-22T01:10:02.451Z,121417.14
2019-02-22T01:12:33.799Z,121232.95
2019-02-22T01:15:05.792Z,120949.70
2019-02-22T01:17:37.591Z,120717.36
2019-02-22T01:20:09.332Z,120473.57
2019-02-22T01:22:40.706Z,120310.14
2019-02-22T01:25:11.990Z,120090.50
2019-02-22T01:27:44.362Z,119774.02
2019-02-22T01:30:15.848Z,119186.41
2019-02-22T01:32:47.180Z,118578.08
2019-02-22T01:35:18.934Z,117969.88
2019-02-22T01:37:50.265Z,117688.16
2019-02-22T01:40:21.622Z,117118.17
2019-02-22T01:42:52.871Z,117035.64
2019-02-22T01:45:24.145Z,116721.38
2019-02-22T01:47:55.812Z,116341.36
2019-02-22T01:50:28.477Z,115914.39
2019-02-22T01:53:00.110Z,115626.72
2019-02-22T01:55:31.667Z,115270.08
2019-02-22T01:58:02.914Z,115058.27
2019-02-22T02:00:34.232Z,114862.83
2019-02-22T02:03:05.589Z,114634.78
2019-02-22T02:05:37.004Z,114429.88
2019-02-22T02:08:11.384Z,114277.94
2019-02-22T02:10:53.674Z,114085.29
2019-02-22T02:13:16.516Z,113925.33
2019-02-22T02:15:48.305Z,113698.16
2019-02-22T02:18:19.945Z,113639.60
2019-02-22T02:20:51.791Z,113697.98
2019-02-22T02:23:23.062Z,113643.53
2019-02-22T02:25:54.819Z,113450.18
2019-02-22T02:28:26.553Z,113321.50
2019-02-22T02:30:58.413Z,113117.84
2019-02-22T02:33:30.082Z,113086.11
2019-02-22T02:36:01.385Z,112945.81
2019-02-22T02:38:33.049Z,112826.94
2019-02-22T02:41:08.457Z,112449.19
2019-02-22T02:43:37.328Z,112177.64
2019-02-22T02:46:09.124Z,111878.94
2019-02-22T02:48:40.309Z,111933.89
2019-02-22T02:51:11.661Z,111615.27
2019-02-22T02:53:42.912Z,111631.78
2019-02-22T02:56:14.280Z,111614.70
2019-02-22T02:58:45.617Z,111427.40
2019-02-22T03:01:17.046Z,111451.16
2019-02-22T03:03:48.311Z,111367.39
2019-02-22T03:06:34.046Z,111283.49
2019-02-22T03:09:06.479Z,111314.72
2019-02-22T03:11:39.558Z,111462.77
2019-02-22T03:14:10.822Z,111393.73
2019-02-22T03:16:42.515Z,111407.70
2019-02-22T03:19:13.776Z,111419.18
2019-02-22T03:21:45.069Z,111478.02
2019-02-22T03:24:17.200Z,111319.59
2019-02-22T03:26:49.231Z,111230.98
2019-02-22T03:29:20.520Z,111109.99
2019-02-22T03:31:51.731Z,110973.98
2019-02-22T03:34:23.698Z,110811.08
2019-02-22T03:36:54.998Z,110445.98
2019-02-22T03:39:26.193Z,110105.34
2019-02-22T03:41:57.847Z,109939.00
2019-02-22T03:44:29.489Z,109802.78
2019-02-22T03:47:00.857Z,109726.34
2019-02-22T03:49:32.124Z,108970.94
2019-02-22T03:52:22.184Z,108665.69
2019-02-22T03:54:53.630Z,108606.96
2019-02-22T03:57:25.277Z,108286.22
2019-02-22T03:59:57.026Z,108186.88
2019-02-22T04:02:28.679Z,108116.85
2019-02-22T04:05:00.029Z,107961.20
2019-02-22T04:07:32.010Z,107909.22
2019-02-22T04:10:03.940Z,107918.79
2019-02-22T04:12:35.334Z,107811.38
2019-02-22T04:15:07.279Z,107683.95
2019-02-22T04:17:38.591Z,107717.61
2019-02-22T04:20:10.112Z,107394.78
2019-02-22T04:22:44.229Z,107206.54
2019-02-22T04:25:14.355Z,107267.81
2019-02-22T04:27:45.616Z,107169.66
2019-02-22T04:30:16.891Z,107202.98
2019-02-22T04:32:48.126Z,107091.23
2019-02-22T04:35:19.798Z,107033.75
2019-02-22T04:37:51.235Z,106935.73
2019-02-22T04:40:23.036Z,106900.30
2019-02-22T04:42:54.916Z,107070.02
2019-02-22T04:45:26.189Z,107028.94
2019-02-22T04:47:57.463Z,106993.39
2019-02-22T04:50:28.694Z,106952.16
2019-02-22T04:52:59.979Z,106878.74
2019-02-22T04:55:31.322Z,106764.83
2019-02-22T04:58:02.779Z,106579.58
2019-02-22T05:00:34.604Z,106513.28
2019-02-22T05:03:06.464Z,106315.88
2019-02-22T05:05:37.747Z,106092.23
2019-02-22T05:08:09.049Z,106053.97
2019-02-22T05:10:40.253Z,106005.05
2019-02-22T05:13:11.545Z,105932.72
2019-02-22T05:15:42.879Z,105885.17
2019-02-22T05:18:14.244Z,105845.88
2019-02-22T05:20:45.826Z,105799.84
2019-02-22T05:23:17.433Z,105773.48
2019-02-22T05:25:49.512Z,105700.18
2019-02-22T05:28:20.766Z,105626.17
2019-02-22T05:30:51.933Z,105591.67
2019-02-22T05:33:23.283Z,105571.80
2019-02-22T05:35:54.445Z,105309.07
2019-02-22T05:38:26.301Z,105632.66
2019-02-22T05:40:57.996Z,105677.44
2019-02-22T05:43:29.281Z,105620.09
2019-02-22T05:46:00.866Z,105528.28
2019-02-22T05:48:32.854Z,105798.80
2019-02-22T05:51:04.170Z,105736.66
2019-02-22T05:53:35.575Z,105687.41
2019-02-22T05:56:08.339Z,105547.46
2019-02-22T05:58:39.607Z,105447.82
2019-02-22T06:01:10.953Z,105340.52
2019-02-22T06:03:43.116Z,105279.96
2019-02-22T06:06:14.836Z,105233.37
2019-02-22T06:08:47.322Z,105189.97
2019-02-22T06:11:19.781Z,105140.17
2019-02-22T06:13:51.508Z,105085.70
2019-02-22T06:16:24.456Z,105056.32
2019-02-22T06:18:57.155Z,105030.64
2019-02-22T06:21:28.661Z,104951.20
2019-02-22T06:24:02.715Z,104882.16
2019-02-22T06:26:33.287Z,104931.42
2019-02-22T06:29:05.715Z,104905.86
2019-02-22T06:31:37.022Z,104892.39
2019-02-22T06:34:08.536Z,104855.91
2019-02-22T06:36:39.848Z,104832.95
2019-02-22T06:39:11.095Z,104821.59
2019-02-22T06:41:42.747Z,104784.57
2019-02-22T06:44:14.551Z,104740.63
2019-02-22T06:46:45.823Z,104640.23
2019-02-22T06:49:17.142Z,104583.37
2019-02-22T06:51:48.563Z,104548.59
2019-02-22T06:54:20.617Z,104559.36
2019-02-22T06:56:53.065Z,104534.67
2019-02-22T06:59:25.572Z,104525.87
2019-02-22T07:01:57.401Z,104512.84
2019-02-22T07:04:28.709Z,104502.60
2019-02-22T07:06:59.924Z,104497.93
2019-02-22T07:09:31.644Z,104522.72
2019-02-22T07:12:13.197Z,104513.72
2019-02-22T07:14:47.526Z,104502.09
2019-02-22T07:17:18.985Z,104498.82
2019-02-22T07:19:50.613Z,104451.87
2019-02-22T07:22:21.988Z,104427.34
2019-02-22T07:24:53.313Z,104433.74
2019-02-22T07:27:24.988Z,104438.66
2019-02-22T07:29:56.680Z,104452.68
2019-02-22T07:32:28.195Z,104461.79
2019-02-22T07:34:59.511Z,104473.19
2019-02-22T07:37:31.315Z,104487.69
2019-02-22T07:40:02.923Z,104478.56
2019-02-22T07:42:34.811Z,104466.75
2019-02-22T07:45:08.232Z,104529.00
2019-02-22T07:47:39.596Z,104642.36
2019-02-22T07:50:12.344Z,104658.11
2019-02-22T07:52:45.296Z,104683.41
2019-02-22T07:55:16.644Z,104694.05
2019-02-22T07:57:48.780Z,104699.20
2019-02-22T08:00:21.037Z,104719.31
2019-02-22T08:02:52.339Z,104750.77
2019-02-22T08:05:23.763Z,104754.27
2019-02-22T08:07:55.172Z,104747.57
2019-02-22T08:10:27.375Z,104754.02
2019-02-22T08:12:58.788Z,104741.70
2019-02-22T08:15:30.648Z,104746.84
2019-02-22T08:18:03.803Z,104743.88
2019-02-22T08:20:36.104Z,104747.52
2019-02-22T08:23:07.995Z,104755.42
2019-02-22T08:25:39.537Z,104722.39
2019-02-22T08:28:11.368Z,104719.60
2019-02-22T08:30:43.008Z,104721.53
2019-02-22T08:33:14.583Z,104716.95
2019-02-22T08:35:46.182Z,104682.12
2019-02-22T08:38:18.005Z,104706.63
2019-02-22T08:40:50.170Z,104713.05
2019-02-22T08:43:31.584Z,104724.18
2019-02-22T08:45:57.970Z,104730.30
2019-02-22T08:48:31.548Z,104693.97
2019-02-22T08:51:23.834Z,104699.51
2019-02-22T08:53:55.745Z,104704.33
2019-02-22T08:56:27.394Z,104680.23
2019-02-22T08:58:59.375Z,104690.08
2019-02-22T09:01:30.908Z,104683.98
2019-02-22T09:04:02.744Z,104676.57
2019-02-22T09:06:34.665Z,104669.63
2019-02-22T09:09:06.474Z,104656.64
2019-02-22T09:11:38.455Z,104662.77
2019-02-22T09:14:11.092Z,104684.67
2019-02-22T09:16:43.149Z,104681.10
2019-02-22T09:19:15.195Z,104669.91
2019-02-22T09:21:46.714Z,104654.16
2019-02-22T09:24:18.527Z,104636.19
2019-02-22T09:26:50.331Z,104630.52
2019-02-22T09:29:22.218Z,104652.37
2019-02-22T09:31:54.458Z,104655.48
2019-02-22T09:34:25.877Z,104663.30
2019-02-22T09:36:59.093Z,104658.92
2019-02-22T09:39:30.705Z,104655.25
2019-02-22T09:42:02.034Z,104647.82
2019-02-22T09:44:33.381Z,104635.92
2019-02-22T09:47:04.657Z,104624.34
2019-02-22T09:49:35.901Z,104633.09
2019-02-22T09:52:07.647Z,104624.67
2019-02-22T09:54:38.930Z,104627.70
2019-02-22T09:57:10.211Z,104665.71
2019-02-22T09:59:41.903Z,104660.48
2019-02-22T10:02:16.453Z,104647.09
2019-02-22T10:04:55.525Z,104639.28
2019-02-22T10:07:27.631Z,104653.02
2019-02-22T10:09:59.905Z,104670.87
2019-02-22T10:12:31.660Z,104685.25
2019-02-22T10:15:02.948Z,104690.08
2019-02-22T10:17:35.701Z,104697.14
2019-02-22T10:20:07.233Z,104699.20
2019-02-22T10:22:38.536Z,104688.31
2019-02-22T10:25:09.883Z,104691.95
2019-02-22T10:27:41.305Z,104707.58
2019-02-22T10:31:41.465Z,104765.10
2019-02-22T10:34:13.770Z,104740.20
2019-02-22T10:36:45.673Z,104741.72
2019-02-22T10:39:17.207Z,104727.23
2019-02-22T10:41:48.708Z,104729.45
2019-02-22T10:44:20.335Z,104750.69
2019-02-22T10:46:52.295Z,104769.63
2019-02-22T10:49:23.552Z,104786.53
2019-02-22T10:51:54.855Z,104780.33
2019-02-22T10:54:26.691Z,104773.64
2019-02-22T10:56:57.991Z,104779.29
2019-02-22T10:59:29.346Z,104799.70
2019-02-22T11:02:01.084Z,104795.70
2019-02-22T11:04:32.653Z,104795.22
2019-02-22T11:07:03.848Z,104809.44
2019-02-22T11:09:35.251Z,104807.13
2019-02-22T11:12:06.763Z,104793.83
2019-02-22T11:14:39.859Z,104797.82
2019-02-22T11:17:11.306Z,104814.08
2019-02-22T11:19:44.639Z,104807.16
2019-02-22T11:23:21.279Z,104878.25
2019-02-22T11:25:53.298Z,104834.66
2019-02-22T11:28:24.904Z,104833.72
2019-02-22T11:30:56.559Z,104836.83
2019-02-22T11:33:43.797Z,104827.72
2019-02-22T11:36:16.223Z,104822.45
2019-02-22T11:38:47.493Z,104797.91
2019-02-22T11:41:19.170Z,104771.72
2019-02-22T11:43:50.640Z,104752.92
2019-02-22T11:46:22.041Z,104726.97
2019-02-22T11:48:53.878Z,104705.98
2019-02-22T11:51:25.389Z,104672.45
2019-02-22T11:53:57.672Z,104661.59
2019-02-22T11:56:29.744Z,104658.82
2019-02-22T11:59:01.290Z,104643.88
2019-02-22T12:01:51.707Z,104649.52
2019-02-22T12:04:23.110Z,104640.16
2019-02-22T12:06:54.396Z,104647.70
2019-02-22T12:09:26.253Z,104651.11
2019-02-22T12:11:58.530Z,104662.47
2019-02-22T12:14:30.627Z,104672.45
2019-02-22T12:17:02.864Z,104706.47
2019-02-22T12:21:19.817Z,104791.17
2019-02-22T12:23:52.964Z,104749.14
2019-02-22T12:29:15.320Z,104767.44
2019-02-22T12:31:46.878Z,104788.89
2019-02-22T12:34:21.201Z,104780.13
2019-02-22T12:36:54.184Z,104783.35
2019-02-22T12:39:25.610Z,104813.17
2019-02-22T12:41:58.618Z,104817.17
2019-02-22T12:44:31.095Z,104810.33
2019-02-22T12:47:03.596Z,104828.10
2019-02-22T12:49:35.774Z,104842.75
2019-02-22T12:52:07.169Z,104861.02
2019-02-22T12:54:38.759Z,104913.19
2019-02-22T12:57:11.354Z,104939.77
2019-02-22T12:59:43.416Z,104973.41
2019-02-22T13:02:15.394Z,104958.78
2019-02-22T13:04:48.127Z,104975.77
2019-02-22T13:07:21.256Z,104974.98
2019-02-22T13:09:53.410Z,104960.14
2019-02-22T13:12:24.908Z,104984.70
2019-02-22T13:14:56.507Z,104994.67
2019-02-22T13:17:31.020Z,104994.52
2019-02-22T13:20:02.203Z,104964.62
2019-02-22T13:22:34.193Z,104941.84
2019-02-22T13:25:05.759Z,104972.08
2019-02-22T13:27:37.213Z,104975.47
2019-02-22T13:30:09.717Z,105012.27
2019-02-22T13:32:43.136Z,105048.19
2019-02-22T13:35:14.415Z,105045.58
2019-02-22T13:37:46.469Z,105030.58
2019-02-22T13:40:17.962Z,105050.56
2019-02-22T13:42:49.382Z,105068.83
2019-02-22T13:45:26.478Z,105056.87
2019-02-22T13:47:54.489Z,105040.80
2019-02-22T13:50:25.982Z,105040.20
2019-02-22T13:52:57.794Z,105056.80
2019-02-22T13:55:29.698Z,105093.06
2019-02-22T13:58:02.171Z,105083.77
2019-02-22T14:00:33.722Z,105092.31
2019-02-22T14:03:06.123Z,105062.05
2019-02-22T14:05:38.234Z,105059.45
2019-02-22T14:08:10.015Z,105077.83
2019-02-22T14:10:42.223Z,105086.77
2019-02-22T14:13:14.128Z,105101.13
2019-02-22T14:15:47.395Z,105100.69
2019-02-22T14:18:18.901Z,105103.66
2019-02-22T14:20:50.548Z,105095.87
2019-02-22T14:23:22.484Z,105084.34
2019-02-22T14:25:53.985Z,105080.29
2019-02-22T14:28:26.762Z,105102.02
2019-02-22T14:30:58.486Z,105098.02
2019-02-22T14:33:29.922Z,105070.31
2019-02-22T14:36:01.481Z,105042.98
2019-02-22T14:38:33.225Z,105030.38
2019-02-22T14:41:04.726Z,105002.70
2019-02-22T14:43:37.043Z,104986.48
2019-02-22T14:46:08.948Z,104953.77
2019-02-22T14:48:40.800Z,104949.27
2019-02-22T14:51:16.793Z,104940.86
2019-02-22T14:53:52.912Z,104927.05
2019-02-22T14:56:24.905Z,104931.34
2019-02-22T14:58:56.662Z,104968.36
2019-02-22T15:01:28.231Z,104962.11
2019-02-22T15:03:59.511Z,104953.58
2019-02-22T15:06:31.527Z,104948.18
2019-02-22T15:09:04.578Z,104929.73
2019-02-22T15:11:36.711Z,104947.38
2019-02-22T15:14:08.537Z,104962.88
2019-02-22T15:16:57.659Z,104988.40
2019-02-22T15:19:29.084Z,104989.19
2019-02-22T15:22:03.878Z,104970.79
2019-02-22T15:24:37.150Z,104988.84
2019-02-22T15:27:09.257Z,105020.39
2019-02-22T15:29:40.631Z,105030.58
2019-02-22T15:32:12.564Z,105044.23
2019-02-22T15:34:44.413Z,105064.38
2019-02-22T15:37:15.665Z,105057.37
2019-02-22T15:39:48.473Z,105075.52
2019-02-22T15:42:20.032Z,105098.75
2019-02-22T15:44:53.843Z,105057.86
2019-02-22T15:47:25.207Z,105073.81
2019-02-22T15:49:56.810Z,105069.36
2019-02-22T15:52:29.128Z,105073.05
2019-02-22T15:55:02.071Z,105082.27
2019-02-22T15:57:34.312Z,105103.61
2019-02-22T16:00:08.246Z,105112.05
2019-02-22T16:02:40.519Z,105101.84
2019-02-22T16:05:22.856Z,105113.92
2019-02-22T16:07:54.099Z,105114.02
2019-02-22T16:10:25.336Z,105156.88
2019-02-22T16:12:56.972Z,105159.43
2019-02-22T16:15:28.753Z,105145.63
2019-02-22T16:18:00.652Z,105133.09
2019-02-22T16:20:32.377Z,105098.66
2019-02-22T16:23:04.858Z,105120.63
2019-02-22T16:25:36.206Z,105125.72
2019-02-22T16:28:07.576Z,105131.44
2019-02-22T16:30:39.070Z,105153.88
2019-02-22T16:33:10.652Z,105175.48
2019-02-22T16:35:42.996Z,105195.66
2019-02-22T16:38:14.615Z,105199.21
2019-02-22T16:40:46.235Z,105199.73
2019-02-22T16:43:18.024Z,105206.67
2019-02-22T16:45:49.825Z,105236.19
2019-02-22T16:48:21.225Z,105293.55
2019-02-22T16:50:52.811Z,105318.19
2019-02-22T16:53:24.074Z,105327.79
2019-02-22T16:55:55.445Z,105349.89
2019-02-22T16:58:26.745Z,105378.83
2019-02-22T17:00:58.079Z,105371.23
2019-02-22T17:03:29.334Z,105385.09
2019-02-22T17:06:01.709Z,105380.91
2019-02-22T17:08:33.656Z,105369.65
2019-02-22T17:11:05.924Z,105358.87
2019-02-22T17:13:37.684Z,105371.85
2019-02-22T17:16:09.798Z,105385.91
2019-02-22T17:18:41.078Z,105384.02
2019-02-22T17:21:12.497Z,105383.81
2019-02-22T17:23:44.131Z,105377.19
2019-02-22T17:26:21.138Z,105363.19
2019-02-22T17:28:52.625Z,105377.16
2019-02-22T17:31:25.736Z,105375.58
2019-02-22T17:33:57.378Z,105379.24
2019-02-22T17:36:31.352Z,105371.48
2019-02-22T17:39:02.253Z,105390.27
2019-02-22T17:41:35.609Z,105408.25
2019-02-22T17:44:07.244Z,105427.25
2019-02-22T17:46:38.913Z,105451.13
2019-02-22T17:49:11.155Z,105470.81
2019-02-22T17:51:42.839Z,105499.80
2019-02-22T17:54:14.318Z,105504.98
2019-02-22T17:56:45.718Z,105524.25
2019-02-22T17:59:21.915Z,105536.12
2019-02-22T18:01:53.748Z,105523.52
2019-02-22T18:04:27.379Z,105561.14
2019-02-22T18:06:59.600Z,105591.85
2019-02-22T18:09:31.637Z,105592.09
2019-02-22T18:12:03.892Z,105558.80
2019-02-22T18:14:37.082Z,105537.95
2019-02-22T18:17:09.254Z,105488.30
2019-02-22T18:19:41.615Z,105476.08
2019-02-22T18:22:25.744Z,105502.70
2019-02-22T18:24:57.708Z,105539.33
2019-02-22T18:27:30.775Z,105546.48
2019-02-22T18:30:02.711Z,105574.27
2019-02-22T18:32:35.625Z,105614.02
2019-02-22T18:35:08.593Z,105622.48
2019-02-22T18:37:42.656Z,105647.27
2019-02-22T18:40:22.058Z,105664.09
2019-02-22T18:42:54.174Z,105665.00
2019-02-22T18:48:24.209Z,105677.16
2019-02-22T18:50:57.721Z,105686.50
2019-02-22T18:53:29.563Z,105691.97
2019-02-22T18:56:01.935Z,105693.47
2019-02-22T18:58:33.694Z,105704.67
2019-02-22T19:01:05.854Z,105696.77
2019-02-22T19:03:38.353Z,105712.86
2019-02-22T19:06:10.948Z,105727.20
2019-02-22T19:08:53.294Z,105721.45
2019-02-22T19:11:25.445Z,105708.63
2019-02-22T19:13:58.757Z,105711.06
2019-02-22T19:16:31.352Z,105716.84
2019-02-22T19:19:02.815Z,105685.70
2019-02-22T19:21:34.673Z,105650.06
2019-02-22T19:24:06.286Z,105598.65
2019-02-22T19:26:40.062Z,105543.09
2019-02-22T19:29:11.990Z,105514.20
2019-02-22T19:31:43.916Z,105550.14
2019-02-22T19:34:15.926Z,105564.97
2019-02-22T19:36:48.092Z,105596.30
2019-02-22T19:39:20.208Z,105618.56
2019-02-22T19:41:52.782Z,105612.98
2019-02-22T19:44:24.287Z,105617.45
2019-02-22T19:46:56.525Z,105646.86
2019-02-22T19:49:30.925Z,105654.63
2019-02-22T19:52:02.909Z,105634.50
2019-02-22T19:54:36.140Z,105626.02
2019-02-22T19:57:07.837Z,105630.02
2019-02-22T19:59:39.141Z,105657.98
2019-02-22T20:02:11.369Z,105679.75
2019-02-22T20:04:43.116Z,105690.67
2019-02-22T20:07:15.098Z,105695.19
2019-02-22T20:09:47.645Z,105685.79
2019-02-22T20:12:19.492Z,105700.70
2019-02-22T20:14:51.399Z,105723.45
2019-02-22T20:17:22.881Z,105727.94
2019-02-22T20:19:54.664Z,105736.55
2019-02-22T20:22:26.501Z,105740.44
2019-02-22T20:24:57.980Z,105726.58
2019-02-22T20:27:30.440Z,105748.47
2019-02-22T20:30:02.161Z,105776.99
2019-02-22T20:32:35.701Z,105785.77
2019-02-22T20:35:09.042Z,105807.39
2019-02-22T20:37:51.749Z,105777.02
2019-02-22T20:40:22.554Z,105768.79
2019-02-22T20:42:55.192Z,105764.88
2019-02-22T20:45:29.201Z,105784.70
2019-02-22T20:48:05.105Z,105785.22
2019-02-22T20:50:34.882Z,105781.43
2019-02-22T20:53:06.882Z,105795.31
2019-02-22T20:55:40.104Z,105809.48
2019-02-22T20:58:11.788Z,105818.48
2019-02-22T21:00:43.959Z,105811.37
2019-02-22T21:03:18.011Z,105813.27
2019-02-22T21:05:49.918Z,105818.06
2019-02-22T21:08:24.613Z,105801.03
2019-02-22T21:10:55.678Z,105799.30
2019-02-22T21:13:28.676Z,105792.45
2019-02-22T21:16:00.943Z,105767.89
2019-02-22T21:18:32.597Z,105767.34
2019-02-22T21:21:05.091Z,105754.42
2019-02-22T21:23:36.655Z,105758.80
2019-02-22T21:26:08.026Z,105768.92
2019-02-22T21:28:39.592Z,105775.46
2019-02-22T21:31:10.958Z,105789.70
2019-02-22T21:33:42.258Z,105778.56
2019-02-22T21:36:16.953Z,105788.84
2019-02-22T21:38:48.872Z,105798.31
2019-02-22T21:41:20.548Z,105812.33
2019-02-22T21:43:52.501Z,105814.78
2019-02-22T21:46:24.199Z,105819.63
2019-02-22T21:48:55.909Z,105809.98
2019-02-22T21:51:28.305Z,105797.52
2019-02-22T21:54:00.134Z,105793.48
2019-02-22T21:56:36.285Z,105779.84
2019-02-22T21:59:08.043Z,105754.25
2019-02-22T22:01:39.958Z,105721.59
2019-02-22T22:04:12.406Z,105687.80
2019-02-22T22:06:45.084Z,105655.45
2019-02-22T22:09:17.134Z,105662.06
2019-02-22T22:11:49.920Z,105673.45
2019-02-22T22:14:25.565Z,105704.84
2019-02-22T22:16:59.206Z,105707.45
2019-02-22T22:19:31.174Z,105691.11
2019-02-22T22:22:03.064Z,105684.23
2019-02-22T22:24:35.983Z,105725.01
2019-02-22T22:27:07.922Z,105740.30
2019-02-22T22:29:42.277Z,105731.28
2019-02-22T22:32:14.015Z,105713.22
2019-02-22T22:34:51.282Z,105718.57
2019-02-22T22:37:24.780Z,105717.50
2019-02-22T22:39:56.170Z,105701.12
2019-02-22T22:42:28.679Z,105684.86
2019-02-22T22:45:00.901Z,105697.87
2019-02-22T22:47:32.421Z,105670.50
2019-02-22T22:52:54.968Z,105648.66
2019-02-22T22:55:27.214Z,105631.81
2019-02-22T22:57:59.699Z,105601.38
2019-02-22T23:01:30.293Z,105577.06
2019-02-22T23:04:02.337Z,105570.47
2019-02-22T23:06:38.675Z,105536.36
2019-02-22T23:09:17.585Z,105499.94
2019-02-22T23:11:51.194Z,105463.58
2019-02-22T23:14:24.799Z,105451.09
2019-02-22T23:16:56.787Z,105407.80
2019-02-22T23:19:28.236Z,105369.41
2019-02-22T23:22:02.773Z,105380.45
2019-02-22T23:27:29.364Z,105433.24
2019-02-22T23:30:01.540Z,105427.27
2019-02-22T23:32:36.291Z,105411.69
2019-02-22T23:35:08.982Z,105379.64
2019-02-22T23:37:41.657Z,105359.50
2019-02-22T23:40:13.251Z,105338.59
2019-02-22T23:42:45.515Z,105343.70
2019-02-22T23:45:17.073Z,105351.00
2019-02-22T23:48:37.339Z,105355.81
2019-02-22T23:51:09.771Z,105322.46
2019-02-22T23:53:41.199Z,105296.23
2019-02-22T23:56:15.017Z,105267.60
2019-02-22T23:58:47.448Z,105252.14
